createdAt,value
2023-03-02T00:00:40.217Z,2.32
2023-03-02T00:01:40.213Z,2.25
2023-03-02T00:02:40.246Z,2.28
2023-03-02T00:03:40.252Z,2.30
2023-03-02T00:04:40.193Z,2.24
2023-03-02T00:05:40.165Z,2.24
2023-03-02T00:06:40.158Z,2.22
2023-03-02T00:07:40.143Z,2.15
2023-03-02T00:08:40.162Z,2.19
2023-03-02T00:09:40.133Z,2.18
2023-03-02T00:10:40.113Z,2.19
2023-03-02T00:11:40.123Z,2.15
2023-03-02T00:12:40.100Z,2.15
2023-03-02T00:13:40.081Z,2.12
2023-03-02T00:14:40.097Z,2.21
2023-03-02T00:15:40.106Z,2.04
2023-03-02T00:16:40.050Z,2.06
2023-03-02T00:17:40.036Z,2.18
2023-03-02T00:18:40.047Z,2.17
2023-03-02T00:19:40.045Z,2.11
2023-03-02T00:20:40.005Z,2.19
2023-03-02T00:21:40.003Z,2.00
2023-03-02T00:22:39.985Z,2.06
2023-03-02T00:23:40.005Z,2.15
2023-03-02T00:24:39.960Z,2.01
2023-03-02T00:25:39.950Z,2.10
2023-03-02T00:26:39.940Z,2.11
2023-03-02T00:27:39.956Z,2.14
2023-03-02T00:28:39.937Z,2.07
2023-03-02T00:29:39.925Z,2.01
2023-03-02T00:30:39.895Z,2.03
2023-03-02T00:31:39.965Z,1.99
2023-03-02T00:32:39.873Z,2.00
2023-03-02T00:33:39.870Z,2.06
2023-03-02T00:34:39.879Z,2.00
2023-03-02T00:35:39.969Z,2.04
2023-03-02T00:36:40.379Z,1.97
2023-03-02T00:37:39.823Z,1.92
2023-03-02T00:38:39.810Z,1.92
2023-03-02T00:39:39.835Z,1.92
2023-03-02T00:40:39.784Z,2.01
2023-03-02T00:41:39.770Z,1.93
2023-03-02T00:42:39.783Z,1.91
2023-03-02T00:43:39.779Z,1.95
2023-03-02T00:44:39.753Z,2.00
2023-03-02T00:45:39.755Z,1.92
2023-03-02T00:46:39.762Z,1.84
2023-03-02T00:47:41.088Z,1.97
2023-03-02T00:48:39.704Z,1.93
2023-03-02T00:49:39.690Z,1.89
2023-03-02T00:50:39.703Z,1.87
2023-03-02T00:51:39.673Z,1.92
2023-03-02T00:52:39.666Z,1.92
2023-03-02T00:53:39.664Z,1.78
2023-03-02T00:54:39.636Z,1.91
2023-03-02T00:55:39.638Z,1.82
2023-03-02T00:56:39.617Z,1.77
2023-03-02T00:57:39.599Z,1.67
2023-03-02T00:58:39.594Z,1.78
2023-03-02T00:59:39.604Z,1.80
2023-03-02T01:00:39.597Z,1.78
2023-03-02T01:01:39.557Z,1.75
2023-03-02T01:02:39.667Z,1.77
2023-03-02T01:03:39.571Z,1.77
2023-03-02T01:04:39.531Z,1.77
2023-03-02T01:05:39.543Z,1.66
2023-03-02T01:06:39.511Z,1.75
2023-03-02T01:07:39.500Z,1.81
2023-03-02T01:08:39.495Z,1.67
2023-03-02T01:09:39.471Z,1.69
2023-03-02T01:10:39.488Z,1.64
2023-03-02T01:11:39.457Z,1.66
2023-03-02T01:12:39.453Z,1.69
2023-03-02T01:13:39.431Z,1.75
2023-03-02T01:14:39.443Z,1.63
2023-03-02T01:15:39.461Z,1.67
2023-03-02T01:16:39.541Z,1.71
2023-03-02T01:17:39.392Z,1.74
2023-03-02T01:18:39.389Z,1.71
2023-03-02T01:19:39.402Z,1.57
2023-03-02T01:20:39.387Z,1.59
2023-03-02T01:21:39.349Z,1.67
2023-03-02T01:22:39.341Z,1.62
2023-03-02T01:23:39.327Z,1.59
2023-03-02T01:24:39.324Z,1.62
2023-03-02T01:25:39.334Z,1.55
2023-03-02T01:26:39.307Z,1.52
2023-03-02T01:27:39.289Z,1.52
2023-03-02T01:28:39.300Z,1.49
2023-03-02T01:29:39.299Z,1.45
2023-03-02T01:30:39.281Z,1.59
2023-03-02T01:31:39.354Z,1.49
2023-03-02T01:32:39.293Z,1.55
2023-03-02T01:33:39.250Z,1.48
2023-03-02T01:34:39.217Z,1.36
2023-03-02T01:35:39.274Z,1.46
2023-03-02T01:36:39.192Z,1.38
2023-03-02T01:37:39.176Z,1.45
2023-03-02T01:38:39.283Z,1.45
2023-03-02T01:39:39.154Z,1.39
2023-03-02T01:40:39.148Z,1.48
2023-03-02T01:41:39.166Z,1.52
2023-03-02T01:42:39.128Z,1.39
2023-03-02T01:43:39.125Z,1.42
2023-03-02T01:44:39.105Z,1.36
2023-03-02T01:45:39.118Z,1.42
2023-03-02T01:46:39.110Z,1.26
2023-03-02T01:47:39.106Z,1.44
2023-03-02T01:48:39.062Z,1.28
2023-03-02T01:49:39.049Z,1.30
2023-03-02T01:50:39.039Z,1.31
2023-03-02T01:51:39.048Z,1.27
2023-03-02T01:52:39.026Z,1.30
2023-03-02T01:53:39.006Z,1.34
2023-03-02T01:54:38.998Z,1.35
2023-03-02T01:55:39.033Z,1.35
2023-03-02T01:56:38.982Z,1.28
2023-03-02T01:57:38.960Z,1.26
2023-03-02T01:58:38.956Z,1.39
2023-03-02T01:59:38.942Z,1.28
2023-03-02T02:00:39.025Z,1.31
2023-03-02T02:01:38.922Z,1.26
2023-03-02T02:02:38.910Z,1.28
2023-03-02T02:03:38.956Z,1.24
2023-03-02T02:04:38.892Z,1.35
2023-03-02T02:05:38.906Z,1.36
2023-03-02T02:06:38.893Z,1.42
2023-03-02T02:07:38.856Z,1.45
2023-03-02T02:08:38.853Z,1.52
2023-03-02T02:09:38.837Z,1.45
2023-03-02T02:10:38.849Z,1.57
2023-03-02T02:11:38.853Z,1.59
2023-03-02T02:12:38.809Z,1.66
2023-03-02T02:13:38.791Z,1.71
2023-03-02T02:14:38.783Z,1.73
2023-03-02T02:15:38.786Z,1.75
2023-03-02T02:16:38.806Z,1.81
2023-03-02T02:17:38.771Z,1.84
2023-03-02T02:18:38.742Z,1.82
2023-03-02T02:19:38.765Z,1.75
2023-03-02T02:20:38.718Z,1.81
2023-03-02T02:21:38.696Z,1.84
2023-03-02T02:22:38.720Z,1.78
2023-03-02T02:23:38.685Z,1.84
2023-03-02T02:24:38.679Z,1.89
2023-03-02T02:25:38.660Z,1.95
2023-03-02T02:26:38.654Z,1.93
2023-03-02T02:27:38.671Z,1.89
2023-03-02T02:28:38.652Z,1.84
2023-03-02T02:29:38.631Z,1.84
2023-03-02T02:30:38.607Z,1.92
2023-03-02T02:31:38.638Z,1.80
2023-03-02T02:32:38.640Z,1.82
2023-03-02T02:33:38.596Z,1.82
2023-03-02T02:34:38.564Z,1.80
2023-03-02T02:35:38.747Z,1.82
2023-03-02T02:36:38.552Z,1.84
2023-03-02T02:37:38.552Z,1.81
2023-03-02T02:38:38.559Z,1.81
2023-03-02T02:39:38.512Z,1.74
2023-03-02T02:40:38.527Z,1.73
2023-03-02T02:41:38.492Z,1.74
2023-03-02T02:42:38.488Z,1.73
2023-03-02T02:43:38.493Z,1.77
2023-03-02T02:44:38.461Z,1.67
2023-03-02T02:45:38.476Z,1.77
2023-03-02T02:46:38.460Z,1.71
2023-03-02T02:47:38.431Z,1.63
2023-03-02T02:48:38.452Z,1.73
2023-03-02T02:49:38.415Z,1.69
2023-03-02T02:50:38.424Z,1.66
2023-03-02T02:51:38.411Z,1.71
2023-03-02T02:52:38.378Z,1.62
2023-03-02T02:53:38.362Z,1.66
2023-03-02T02:54:38.366Z,1.60
2023-03-02T02:55:38.349Z,1.60
2023-03-02T02:56:38.329Z,1.56
2023-03-02T02:57:38.314Z,1.57
2023-03-02T02:58:38.311Z,1.59
2023-03-02T02:59:38.319Z,1.55
2023-03-02T03:00:38.300Z,1.46
2023-03-02T03:01:38.311Z,1.52
2023-03-02T03:02:38.278Z,1.52
2023-03-02T03:03:38.276Z,1.46
2023-03-02T03:04:38.368Z,1.48
2023-03-02T03:05:38.229Z,1.49
2023-03-02T03:06:38.273Z,1.38
2023-03-02T03:07:38.227Z,1.53
2023-03-02T03:08:38.208Z,1.48
2023-03-02T03:09:38.279Z,1.42
2023-03-02T03:10:38.183Z,1.44
2023-03-02T03:11:38.168Z,1.44
2023-03-02T03:12:38.161Z,1.39
2023-03-02T03:13:38.143Z,1.34
2023-03-02T03:14:38.161Z,1.27
2023-03-02T03:15:38.153Z,1.31
2023-03-02T03:16:38.156Z,1.38
2023-03-02T03:17:38.100Z,1.39
2023-03-02T03:18:38.098Z,1.31
2023-03-02T03:19:38.105Z,1.26
2023-03-02T03:20:38.089Z,1.26
2023-03-02T03:21:38.052Z,1.26
2023-03-02T03:22:38.056Z,1.31
2023-03-02T03:23:38.052Z,1.28
2023-03-02T03:24:38.024Z,1.28
2023-03-02T03:25:38.030Z,1.21
2023-03-02T03:26:38.019Z,1.12
2023-03-02T03:27:37.983Z,1.24
2023-03-02T03:28:37.997Z,1.23
2023-03-02T03:29:37.972Z,1.31
2023-03-02T03:30:38.031Z,1.34
2023-03-02T03:31:37.955Z,1.30
2023-03-02T03:32:37.938Z,1.44
2023-03-02T03:33:37.923Z,1.38
2023-03-02T03:34:37.913Z,1.59
2023-03-02T03:35:37.939Z,1.57
2023-03-02T03:36:37.892Z,1.66
2023-03-02T03:37:37.905Z,1.71
2023-03-02T03:38:37.870Z,1.80
2023-03-02T03:39:38.004Z,1.81
2023-03-02T03:40:37.851Z,1.92
2023-03-02T03:41:37.841Z,1.93
2023-03-02T03:42:37.854Z,2.06
2023-03-02T03:43:37.808Z,2.01
2023-03-02T03:44:37.808Z,2.10
2023-03-02T03:45:37.786Z,2.12
2023-03-02T03:46:37.804Z,2.18
2023-03-02T03:47:37.767Z,2.14
2023-03-02T03:48:37.757Z,2.11
2023-03-02T03:49:37.749Z,2.17
2023-03-02T03:50:37.737Z,2.12
2023-03-02T03:51:37.756Z,2.07
2023-03-02T03:52:37.716Z,2.14
2023-03-02T03:53:37.708Z,2.15
2023-03-02T03:54:37.690Z,2.18
2023-03-02T03:55:37.703Z,2.17
2023-03-02T03:56:37.695Z,2.04
2023-03-02T03:57:37.659Z,2.18
2023-03-02T03:58:37.751Z,2.14
2023-03-02T03:59:37.649Z,2.15
2023-03-02T04:00:37.634Z,2.07
2023-03-02T04:01:37.776Z,2.10
2023-03-02T04:02:37.676Z,2.18
2023-03-02T04:03:37.596Z,2.04
2023-03-02T04:04:37.596Z,2.03
2023-03-02T04:05:37.573Z,2.11
2023-03-02T04:06:37.583Z,2.04
2023-03-02T04:07:37.555Z,2.03
2023-03-02T04:08:37.542Z,2.00
2023-03-02T04:09:37.527Z,1.93
2023-03-02T04:10:37.518Z,1.93
2023-03-02T04:11:37.550Z,1.97
2023-03-02T04:12:37.541Z,1.95
2023-03-02T04:13:37.485Z,1.89
2023-03-02T04:14:37.477Z,1.82
2023-03-02T04:15:37.514Z,1.80
2023-03-02T04:16:37.493Z,1.87
2023-03-02T04:17:37.467Z,1.85
2023-03-02T04:18:37.435Z,1.84
2023-03-02T04:19:37.464Z,1.82
2023-03-02T04:20:37.416Z,1.74
2023-03-02T04:21:37.397Z,1.78
2023-03-02T04:22:37.418Z,1.66
2023-03-02T04:23:37.376Z,1.74
2023-03-02T04:24:37.371Z,1.63
2023-03-02T04:25:37.353Z,1.64
2023-03-02T04:26:37.390Z,1.66
2023-03-02T04:27:37.450Z,1.57
2023-03-02T04:28:37.327Z,1.63
2023-03-02T04:29:37.326Z,1.49
2023-03-02T04:30:37.310Z,1.69
2023-03-02T04:31:37.300Z,1.57
2023-03-02T04:32:37.316Z,1.53
2023-03-02T04:33:37.278Z,1.49
2023-03-02T04:34:37.269Z,1.44
2023-03-02T04:35:37.326Z,1.41
2023-03-02T04:36:37.629Z,1.45
2023-03-02T04:37:37.238Z,1.48
2023-03-02T04:38:37.228Z,1.44
2023-03-02T04:39:37.212Z,1.30
2023-03-02T04:40:37.230Z,1.44
2023-03-02T04:41:37.196Z,1.42
2023-03-02T04:42:37.186Z,1.38
2023-03-02T04:43:37.200Z,1.36
2023-03-02T04:44:37.170Z,1.38
2023-03-02T04:45:37.180Z,1.34
2023-03-02T04:46:37.288Z,1.28
2023-03-02T04:47:37.138Z,1.26
2023-03-02T04:48:37.141Z,1.35
2023-03-02T04:49:37.144Z,1.30
2023-03-02T04:50:37.101Z,1.23
2023-03-02T04:51:37.092Z,1.27
2023-03-02T04:52:37.077Z,1.21
2023-03-02T04:53:37.074Z,1.27
2023-03-02T04:54:37.083Z,1.17
2023-03-02T04:55:37.046Z,1.21
2023-03-02T04:56:37.054Z,1.17
2023-03-02T04:57:37.033Z,1.17
2023-03-02T04:58:37.014Z,1.23
2023-03-02T04:59:37.075Z,1.23
2023-03-02T05:00:36.996Z,1.28
2023-03-02T05:01:36.988Z,1.26
2023-03-02T05:02:37.005Z,1.38
2023-03-02T05:03:36.966Z,1.46
2023-03-02T05:04:37.045Z,1.38
2023-03-02T05:05:36.964Z,1.45
2023-03-02T05:06:36.928Z,1.57
2023-03-02T05:07:36.922Z,1.73
2023-03-02T05:08:36.904Z,1.74
2023-03-02T05:09:36.892Z,1.75
2023-03-02T05:10:36.904Z,1.85
2023-03-02T05:11:36.878Z,1.89
2023-03-02T05:12:36.892Z,1.95
2023-03-02T05:13:36.852Z,1.91
2023-03-02T05:14:36.843Z,1.91
2023-03-02T05:15:36.898Z,1.89
2023-03-02T05:16:37.274Z,1.99
2023-03-02T05:17:36.807Z,1.99
2023-03-02T05:18:36.796Z,2.00
2023-03-02T05:19:36.803Z,2.00
2023-03-02T05:20:36.804Z,2.01
2023-03-02T05:21:36.788Z,2.11
2023-03-02T05:22:36.757Z,1.95
2023-03-02T05:23:36.755Z,2.04
2023-03-02T05:24:36.730Z,2.03
2023-03-02T05:25:36.731Z,2.04
2023-03-02T05:26:36.740Z,2.03
2023-03-02T05:27:36.713Z,1.99
2023-03-02T05:28:36.732Z,1.99
2023-03-02T05:29:36.681Z,2.00
2023-03-02T05:30:36.668Z,1.93
2023-03-02T05:31:36.941Z,1.97
2023-03-02T05:32:36.755Z,1.95
2023-03-02T05:33:36.663Z,1.95
2023-03-02T05:34:36.621Z,1.91
2023-03-02T05:35:36.682Z,1.92
2023-03-02T05:36:37.101Z,1.93
2023-03-02T05:37:36.594Z,1.80
2023-03-02T05:38:36.602Z,1.80
2023-03-02T05:39:36.574Z,1.81
2023-03-02T05:40:36.579Z,1.85
2023-03-02T05:41:36.560Z,1.75
2023-03-02T05:42:36.552Z,1.77
2023-03-02T05:43:36.559Z,1.75
2023-03-02T05:44:36.516Z,1.67
2023-03-02T05:45:36.520Z,1.73
2023-03-02T05:46:36.828Z,1.75
2023-03-02T05:47:36.520Z,1.69
2023-03-02T05:48:36.507Z,1.60
2023-03-02T05:49:36.492Z,1.64
2023-03-02T05:50:36.456Z,1.59
2023-03-02T05:51:36.453Z,1.62
2023-03-02T05:52:36.427Z,1.60
2023-03-02T05:53:36.449Z,1.56
2023-03-02T05:54:36.408Z,1.55
2023-03-02T05:55:36.427Z,1.56
2023-03-02T05:56:36.389Z,1.45
2023-03-02T05:57:36.392Z,1.55
2023-03-02T05:58:36.367Z,1.52
2023-03-02T05:59:36.361Z,1.55
2023-03-02T06:00:36.378Z,1.39
2023-03-02T06:01:36.363Z,1.48
2023-03-02T06:02:36.419Z,1.45
2023-03-02T06:03:36.458Z,1.46
2023-03-02T06:04:36.297Z,1.44
2023-03-02T06:05:36.291Z,1.41
2023-03-02T06:06:36.596Z,1.42
2023-03-02T06:07:36.269Z,1.46
2023-03-02T06:08:36.281Z,1.41
2023-03-02T06:09:36.245Z,1.31
2023-03-02T06:10:36.235Z,1.38
2023-03-02T06:11:36.224Z,1.31
2023-03-02T06:12:36.209Z,1.31
2023-03-02T06:13:36.229Z,1.39
2023-03-02T06:14:36.211Z,1.35
2023-03-02T06:15:36.188Z,1.34
2023-03-02T06:16:36.501Z,1.23
2023-03-02T06:17:36.158Z,1.34
2023-03-02T06:18:36.158Z,1.31
2023-03-02T06:19:36.281Z,1.44
2023-03-02T06:20:36.124Z,1.30
2023-03-02T06:21:36.118Z,1.39
2023-03-02T06:22:36.106Z,1.26
2023-03-02T06:23:36.095Z,1.28
2023-03-02T06:24:36.119Z,1.26
2023-03-02T06:25:36.075Z,1.28
2023-03-02T06:26:36.075Z,1.34
2023-03-02T06:27:36.053Z,1.31
2023-03-02T06:28:49.734Z,1.26
2023-03-02T06:29:37.052Z,1.34
2023-03-02T06:30:36.022Z,1.38
2023-03-02T06:31:36.090Z,1.26
2023-03-02T06:32:36.072Z,1.39
2023-03-02T06:33:35.991Z,1.48
2023-03-02T06:34:36.001Z,1.38
2023-03-02T06:35:36.346Z,1.53
2023-03-02T06:36:36.262Z,1.63
2023-03-02T06:37:35.947Z,1.62
2023-03-02T06:38:35.960Z,1.69
2023-03-02T06:39:35.958Z,1.74
2023-03-02T06:40:35.919Z,1.80
2023-03-02T06:41:35.912Z,1.84
2023-03-02T06:42:35.888Z,1.77
2023-03-02T06:43:35.917Z,1.93
2023-03-02T06:44:35.871Z,1.92
2023-03-02T06:45:35.933Z,1.93
2023-03-02T06:46:35.848Z,1.91
2023-03-02T06:47:35.858Z,2.01
2023-03-02T06:48:35.851Z,1.95
2023-03-02T06:49:35.818Z,2.00
2023-03-02T06:50:35.812Z,2.00
2023-03-02T06:51:35.815Z,2.01
2023-03-02T06:52:35.779Z,2.11
2023-03-02T06:53:35.797Z,2.07
2023-03-02T06:54:35.760Z,2.00
2023-03-02T06:55:35.763Z,2.04
2023-03-02T06:56:35.741Z,2.12
2023-03-02T06:57:35.782Z,2.07
2023-03-02T06:58:35.743Z,2.06
2023-03-02T06:59:35.711Z,2.18
2023-03-02T07:00:35.711Z,2.07
2023-03-02T07:01:36.188Z,2.19
2023-03-02T07:02:35.677Z,2.10
2023-03-02T07:03:35.746Z,2.06
2023-03-02T07:04:35.652Z,1.99
2023-03-02T07:05:35.671Z,2.10
2023-03-02T07:06:35.631Z,2.14
2023-03-02T07:07:35.653Z,2.15
2023-03-02T07:08:35.607Z,2.15
2023-03-02T07:09:35.601Z,2.12
2023-03-02T07:10:35.618Z,2.14
2023-03-02T07:11:35.578Z,2.10
2023-03-02T07:12:35.569Z,2.04
2023-03-02T07:13:35.597Z,2.01
2023-03-02T07:14:35.552Z,2.07
2023-03-02T07:15:35.556Z,2.18
2023-03-02T07:16:35.583Z,2.06
2023-03-02T07:17:35.520Z,2.12
2023-03-02T07:18:35.510Z,2.14
2023-03-02T07:19:35.497Z,2.07
2023-03-02T07:20:35.536Z,2.15
2023-03-02T07:21:35.619Z,2.07
2023-03-02T07:22:35.493Z,2.11
2023-03-02T07:23:35.474Z,2.18
2023-03-02T07:24:35.433Z,2.17
2023-03-02T07:25:35.466Z,2.00
2023-03-02T07:26:35.428Z,2.19
2023-03-02T07:27:35.408Z,2.17
2023-03-02T07:28:35.394Z,2.06
2023-03-02T07:29:35.389Z,2.12
2023-03-02T07:30:35.448Z,2.15
2023-03-02T07:31:35.653Z,2.21
2023-03-02T07:32:35.472Z,2.06
2023-03-02T07:33:35.369Z,2.14
2023-03-02T07:34:35.351Z,2.11
2023-03-02T07:35:35.382Z,2.11
2023-03-02T07:36:35.303Z,2.07
2023-03-02T07:37:35.318Z,2.17
2023-03-02T07:38:35.281Z,2.04
2023-03-02T07:39:36.569Z,2.17
2023-03-02T07:40:35.270Z,2.15
2023-03-02T07:41:35.563Z,2.15
2023-03-02T07:42:35.252Z,2.19
2023-03-02T07:43:35.236Z,2.17
2023-03-02T07:44:35.247Z,2.18
2023-03-02T07:45:35.240Z,2.19
2023-03-02T07:46:35.321Z,2.21
2023-03-02T07:47:35.229Z,2.15
2023-03-02T07:48:35.177Z,2.14
2023-03-02T07:49:35.169Z,2.17
2023-03-02T07:50:35.177Z,2.17
2023-03-02T07:51:35.346Z,2.15
2023-03-02T07:52:35.148Z,2.11
2023-03-02T07:53:35.134Z,2.19
2023-03-02T07:54:35.144Z,2.15
2023-03-02T07:55:35.144Z,2.17
2023-03-02T07:56:35.101Z,2.17
2023-03-02T07:57:35.092Z,2.17
2023-03-02T07:58:35.432Z,2.18
2023-03-02T07:59:35.064Z,2.21
2023-03-02T08:00:35.066Z,2.19
2023-03-02T08:01:35.492Z,2.19
2023-03-02T08:02:35.082Z,2.22
2023-03-02T08:03:35.019Z,2.22
2023-03-02T08:04:35.010Z,2.24
2023-03-02T08:05:35.034Z,2.19
2023-03-02T08:06:34.985Z,2.29
2023-03-02T08:07:34.984Z,2.24
2023-03-02T08:08:34.960Z,2.24
2023-03-02T08:09:34.958Z,2.28
2023-03-02T08:10:34.972Z,2.25
2023-03-02T08:11:35.295Z,2.29
2023-03-02T08:12:34.917Z,2.32
2023-03-02T08:13:34.936Z,2.32
2023-03-02T08:14:34.904Z,2.32
2023-03-02T08:15:34.936Z,2.30
2023-03-02T08:16:34.952Z,2.28
2023-03-02T08:17:34.871Z,2.32
2023-03-02T08:18:34.862Z,2.28
2023-03-02T08:19:34.872Z,2.33
2023-03-02T08:20:34.858Z,2.39
2023-03-02T08:21:35.276Z,2.33
2023-03-02T08:22:34.818Z,2.36
2023-03-02T08:23:34.868Z,2.47
2023-03-02T08:24:34.800Z,2.48
2023-03-02T08:25:34.820Z,2.45
2023-03-02T08:26:34.775Z,2.48
2023-03-02T08:27:34.797Z,2.39
2023-03-02T08:28:34.753Z,2.45
2023-03-02T08:29:34.745Z,2.43
2023-03-02T08:30:34.727Z,2.43
2023-03-02T08:31:35.349Z,2.54
2023-03-02T08:32:34.809Z,2.57
2023-03-02T08:33:34.702Z,2.36
2023-03-02T08:34:34.704Z,2.50
2023-03-02T08:35:34.724Z,2.40
2023-03-02T08:36:34.904Z,2.42
2023-03-02T08:37:34.662Z,2.54
2023-03-02T08:38:34.646Z,2.51
2023-03-02T08:39:34.642Z,2.57
2023-03-02T08:40:34.623Z,2.55
2023-03-02T08:41:35.189Z,2.45
2023-03-02T08:42:34.605Z,2.60
2023-03-02T08:43:34.635Z,2.50
2023-03-02T08:44:34.600Z,2.55
2023-03-02T08:45:34.648Z,2.60
2023-03-02T08:46:34.587Z,2.57
2023-03-02T08:47:34.566Z,2.58
2023-03-02T08:48:34.566Z,2.60
2023-03-02T08:49:34.524Z,2.71
2023-03-02T08:50:34.510Z,2.69
2023-03-02T08:51:34.863Z,2.57
2023-03-02T08:52:34.530Z,2.61
2023-03-02T08:53:34.481Z,2.53
2023-03-02T08:54:34.473Z,2.63
2023-03-02T08:55:34.459Z,2.71
2023-03-02T08:56:34.753Z,2.72
2023-03-02T08:57:34.438Z,2.65
2023-03-02T08:58:34.423Z,2.69
2023-03-02T08:59:34.460Z,2.71
2023-03-02T09:00:34.404Z,2.69
2023-03-02T09:01:34.895Z,2.75
2023-03-02T09:02:34.383Z,2.78
2023-03-02T09:03:34.372Z,2.81
2023-03-02T09:04:34.453Z,2.81
2023-03-02T09:05:34.367Z,2.81
2023-03-02T09:06:34.341Z,2.76
2023-03-02T09:07:34.325Z,2.82
2023-03-02T09:08:34.313Z,2.78
2023-03-02T09:09:34.324Z,2.84
2023-03-02T09:10:34.301Z,2.86
2023-03-02T09:11:34.699Z,2.79
2023-03-02T09:12:34.273Z,2.90
2023-03-02T09:13:34.274Z,3.00
2023-03-02T09:14:34.311Z,2.90
2023-03-02T09:15:34.267Z,2.96
2023-03-02T09:16:34.301Z,2.91
2023-03-02T09:17:34.223Z,2.97
2023-03-02T09:18:34.235Z,2.93
2023-03-02T09:19:34.221Z,2.96
2023-03-02T09:20:34.193Z,2.99
2023-03-02T09:21:34.652Z,2.97
2023-03-02T09:22:34.162Z,3.04
2023-03-02T09:23:34.167Z,3.00
2023-03-02T09:24:34.173Z,3.04
2023-03-02T09:25:34.149Z,3.09
2023-03-02T09:26:34.131Z,3.05
2023-03-02T09:27:34.158Z,3.11
2023-03-02T09:28:34.111Z,3.11
2023-03-02T09:29:34.123Z,3.12
2023-03-02T09:30:34.114Z,3.20
2023-03-02T09:31:34.455Z,3.18
2023-03-02T09:32:34.200Z,3.18
2023-03-02T09:33:34.050Z,3.17
2023-03-02T09:34:34.044Z,3.27
2023-03-02T09:35:34.043Z,3.15
2023-03-02T09:36:34.021Z,3.20
2023-03-02T09:37:34.037Z,3.25
2023-03-02T09:38:33.997Z,3.26
2023-03-02T09:39:34.007Z,3.25
2023-03-02T09:40:33.980Z,3.20
2023-03-02T09:41:34.357Z,3.25
2023-03-02T09:42:43.558Z,3.23
2023-03-02T09:43:34.939Z,3.33
2023-03-02T09:44:33.941Z,3.26
2023-03-02T09:45:34.001Z,3.32
2023-03-02T09:46:33.914Z,3.30
2023-03-02T09:47:36.024Z,3.36
2023-03-02T09:48:33.936Z,3.37
2023-03-02T09:49:34.144Z,3.36
2023-03-02T09:50:33.868Z,3.33
2023-03-02T09:51:34.180Z,3.36
2023-03-02T09:52:33.847Z,3.41
2023-03-02T09:53:33.844Z,3.51
2023-03-02T09:54:33.910Z,3.41
2023-03-02T09:55:33.823Z,3.45
2023-03-02T09:56:34.171Z,3.37
2023-03-02T09:57:33.792Z,3.46
2023-03-02T09:58:33.779Z,3.45
2023-03-02T09:59:33.794Z,3.35
2023-03-02T10:00:33.790Z,3.51
2023-03-02T10:01:33.779Z,3.46
2023-03-02T10:02:33.743Z,3.51
2023-03-02T10:03:33.881Z,3.49
2023-03-02T10:04:33.738Z,3.46
2023-03-02T10:05:33.704Z,3.60
2023-03-02T10:06:34.145Z,3.54
2023-03-02T10:07:33.684Z,3.54
2023-03-02T10:08:33.670Z,3.56
2023-03-02T10:09:33.654Z,3.59
2023-03-02T10:10:33.652Z,3.60
2023-03-02T10:11:33.671Z,3.60
2023-03-02T10:12:33.629Z,3.70
2023-03-02T10:13:33.634Z,3.67
2023-03-02T10:14:33.644Z,3.64
2023-03-02T10:15:33.594Z,3.63
2023-03-02T10:16:33.903Z,3.67
2023-03-02T10:17:33.573Z,3.64
2023-03-02T10:18:33.604Z,3.66
2023-03-02T10:19:33.575Z,3.78
2023-03-02T10:20:34.638Z,3.76
2023-03-02T10:21:33.527Z,3.84
2023-03-02T10:22:33.517Z,3.82
2023-03-02T10:23:33.530Z,3.85
2023-03-02T10:24:33.500Z,3.84
2023-03-02T10:25:33.483Z,3.87
2023-03-02T10:26:33.878Z,3.85
2023-03-02T10:27:33.503Z,3.88
2023-03-02T10:28:33.476Z,3.92
2023-03-02T10:29:33.455Z,3.91
2023-03-02T10:30:33.463Z,3.87
2023-03-02T10:31:33.416Z,4.00
2023-03-02T10:32:33.443Z,4.00
2023-03-02T10:33:33.395Z,3.96
2023-03-02T10:34:33.412Z,4.00
2023-03-02T10:35:33.415Z,4.03
2023-03-02T10:36:33.936Z,3.99
2023-03-02T10:37:33.385Z,4.02
2023-03-02T10:38:33.346Z,4.03
2023-03-02T10:39:33.351Z,4.08
2023-03-02T10:40:33.319Z,4.10
2023-03-02T10:41:33.314Z,4.17
2023-03-02T10:42:33.306Z,4.13
2023-03-02T10:43:33.291Z,4.24
2023-03-02T10:44:33.325Z,4.23
2023-03-02T10:45:33.273Z,4.20
2023-03-02T10:46:33.703Z,4.20
2023-03-02T10:47:33.243Z,4.26
2023-03-02T10:48:33.240Z,4.21
2023-03-02T10:49:33.225Z,4.31
2023-03-02T10:50:33.226Z,4.28
2023-03-02T10:51:33.226Z,4.24
2023-03-02T10:52:33.188Z,4.31
2023-03-02T10:53:33.184Z,4.31
2023-03-02T10:54:33.197Z,4.34
2023-03-02T10:55:33.156Z,4.28
2023-03-02T10:56:33.578Z,4.31
2023-03-02T10:57:33.156Z,4.38
2023-03-02T10:58:33.128Z,4.42
2023-03-02T10:59:33.121Z,4.43
2023-03-02T11:00:33.142Z,4.46
2023-03-02T11:01:33.174Z,4.53
2023-03-02T11:02:33.084Z,4.43
2023-03-02T11:03:33.095Z,4.43
2023-03-02T11:04:33.149Z,4.54
2023-03-02T11:05:33.051Z,4.56
2023-03-02T11:06:33.342Z,4.60
2023-03-02T11:07:33.070Z,4.64
2023-03-02T11:08:33.039Z,4.61
2023-03-02T11:09:33.011Z,4.67
2023-03-02T11:10:33.001Z,4.71
2023-03-02T11:11:33.256Z,4.66
2023-03-02T11:12:33.005Z,4.77
2023-03-02T11:13:32.968Z,4.74
2023-03-02T11:14:32.957Z,4.83
2023-03-02T11:15:32.963Z,4.85
2023-03-02T11:16:33.010Z,4.82
2023-03-02T11:17:32.941Z,4.85
2023-03-02T11:18:32.971Z,4.93
2023-03-02T11:19:32.904Z,4.93
2023-03-02T11:20:32.907Z,4.94
2023-03-02T11:21:33.275Z,5.01
2023-03-02T11:22:32.877Z,5.00
2023-03-02T11:23:32.908Z,4.97
2023-03-02T11:24:32.875Z,5.04
2023-03-02T11:25:32.838Z,5.09
2023-03-02T11:26:32.825Z,5.16
2023-03-02T11:27:32.839Z,5.19
2023-03-02T11:28:32.814Z,5.22
2023-03-02T11:29:32.796Z,5.16
2023-03-02T11:30:32.781Z,5.34
2023-03-02T11:31:33.117Z,5.34
2023-03-02T11:32:32.844Z,5.29
2023-03-02T11:33:32.760Z,5.36
2023-03-02T11:34:32.766Z,5.41
2023-03-02T11:35:32.849Z,5.39
2023-03-02T11:36:32.733Z,5.50
2023-03-02T11:37:32.725Z,5.52
2023-03-02T11:38:32.715Z,5.55
2023-03-02T11:39:32.739Z,5.62
2023-03-02T11:40:32.682Z,5.67
2023-03-02T11:41:33.057Z,5.57
2023-03-02T11:42:32.738Z,5.61
2023-03-02T11:43:32.635Z,5.66
2023-03-02T11:44:32.654Z,5.76
2023-03-02T11:45:32.623Z,5.80
2023-03-02T11:46:32.673Z,5.82
2023-03-02T11:47:32.596Z,6.02
2023-03-02T11:48:32.635Z,6.08
2023-03-02T11:49:32.598Z,6.12
2023-03-02T11:50:32.589Z,6.16
2023-03-02T11:51:32.843Z,6.24
2023-03-02T11:52:32.546Z,6.30
2023-03-02T11:53:32.596Z,6.38
2023-03-02T11:54:32.523Z,6.47
2023-03-02T11:55:32.547Z,6.49
2023-03-02T11:56:32.502Z,6.50
2023-03-02T11:57:32.489Z,6.61
2023-03-02T11:58:32.484Z,6.64
2023-03-02T11:59:32.467Z,6.60
2023-03-02T12:00:32.481Z,6.57
2023-03-02T12:01:32.714Z,6.61
2023-03-02T12:02:32.428Z,6.63
2023-03-02T12:03:32.424Z,6.71
2023-03-02T12:04:32.451Z,6.78
2023-03-02T12:05:32.458Z,6.83
2023-03-02T12:06:32.735Z,6.82
2023-03-02T12:07:32.371Z,6.85
2023-03-02T12:08:32.367Z,6.91
2023-03-02T12:09:32.353Z,6.99
2023-03-02T12:10:32.347Z,7.01
2023-03-02T12:11:32.381Z,7.03
2023-03-02T12:12:32.331Z,7.10
2023-03-02T12:13:32.342Z,7.21
2023-03-02T12:14:32.302Z,7.22
2023-03-02T12:15:32.307Z,7.16
2023-03-02T12:16:32.684Z,7.26
2023-03-02T12:17:32.329Z,7.33
2023-03-02T12:18:32.261Z,7.40
2023-03-02T12:19:32.246Z,7.43
2023-03-02T12:20:34.006Z,7.46
2023-03-02T12:21:32.244Z,7.52
2023-03-02T12:22:32.234Z,7.55
2023-03-02T12:23:32.202Z,7.58
2023-03-02T12:24:32.205Z,7.61
2023-03-02T12:25:32.192Z,7.73
2023-03-02T12:26:32.615Z,7.71
2023-03-02T12:27:32.270Z,7.80
2023-03-02T12:28:32.208Z,7.80
2023-03-02T12:29:32.157Z,7.87
2023-03-02T12:30:32.137Z,7.84
2023-03-02T12:31:32.153Z,7.96
2023-03-02T12:32:32.143Z,8.06
2023-03-02T12:33:32.128Z,8.10
2023-03-02T12:34:32.379Z,8.20
2023-03-02T12:35:32.129Z,8.34
2023-03-02T12:36:32.448Z,8.34
2023-03-02T12:37:32.052Z,8.37
2023-03-02T12:38:32.168Z,8.47
2023-03-02T12:39:32.032Z,8.50
2023-03-02T12:40:32.022Z,8.59
2023-03-02T12:41:32.040Z,8.62
2023-03-02T12:42:32.001Z,8.70
2023-03-02T12:43:32.049Z,8.72
2023-03-02T12:44:31.981Z,8.85
2023-03-02T12:45:32.027Z,8.93
2023-03-02T12:46:32.451Z,8.99
2023-03-02T12:47:32.475Z,9.11
2023-03-02T12:48:32.183Z,9.27
2023-03-02T12:49:31.918Z,9.40
2023-03-02T12:50:31.915Z,9.47
2023-03-02T12:51:32.019Z,9.60
2023-03-02T12:52:31.976Z,9.75
2023-03-02T12:53:31.911Z,9.87
2023-03-02T12:54:31.864Z,10.01
2023-03-02T12:55:32.054Z,10.03
2023-03-02T12:56:31.844Z,10.03
2023-03-02T12:57:31.862Z,10.17
2023-03-02T12:58:31.849Z,10.46
2023-03-02T12:59:31.857Z,10.65
2023-03-02T13:00:31.802Z,10.79
2023-03-02T13:01:31.845Z,10.85
2023-03-02T13:02:31.842Z,10.97
2023-03-02T13:03:31.797Z,11.09
2023-03-02T13:04:31.884Z,11.13
2023-03-02T13:05:31.756Z,11.12
2023-03-02T13:06:31.871Z,11.18
2023-03-02T13:07:31.725Z,11.15
2023-03-02T13:08:31.772Z,11.28
2023-03-02T13:09:31.714Z,11.20
2023-03-02T13:10:31.755Z,11.34
2023-03-02T13:11:31.683Z,11.38
2023-03-02T13:12:31.695Z,11.49
2023-03-02T13:13:31.720Z,11.49
2023-03-02T13:14:31.648Z,11.59
2023-03-02T13:15:31.660Z,11.62
2023-03-02T13:16:32.002Z,11.79
2023-03-02T13:17:31.655Z,11.91